sensor_id;sensor_type;location;lat;lon;timestamp;pressure;altitude;pressure_sealevel;temperature;humidity
58769;BME280;44536;47.474;19.056;2023-05-11T00:00:23;100583.47;;;12.82;56.59
58769;BME280;44536;47.474;19.056;2023-05-11T00:03:26;100579.47;;;12.88;56.80
58769;BME280;44536;47.474;19.056;2023-05-11T00:06:28;100579.22;;;12.91;56.40
58769;BME280;44536;47.474;19.056;2023-05-11T00:09:31;100575.81;;;12.89;56.12
58769;BME280;44536;47.474;19.056;2023-05-11T00:12:33;100572.31;;;12.88;57.79
58769;BME280;44536;47.474;19.056;2023-05-11T00:15:36;100576.06;;;12.86;56.88
58769;BME280;44536;47.474;19.056;2023-05-11T00:18:38;100573.66;;;12.83;57.29
58769;BME280;44536;47.474;19.056;2023-05-11T00:21:41;100570.16;;;12.82;58.06
58769;BME280;44536;47.474;19.056;2023-05-11T00:24:43;100579.84;;;12.83;57.97
58769;BME280;44536;47.474;19.056;2023-05-11T00:27:48;100582.75;;;12.80;57.46
58769;BME280;44536;47.474;19.056;2023-05-11T00:30:54;100579.59;;;12.86;57.32
58769;BME280;44536;47.474;19.056;2023-05-11T00:33:57;100574.12;;;12.88;57.57
58769;BME280;44536;47.474;19.056;2023-05-11T00:37:00;100574.22;;;12.98;57.26
58769;BME280;44536;47.474;19.056;2023-05-11T00:40:03;100576.03;;;12.97;57.17
58769;BME280;44536;47.474;19.056;2023-05-11T00:43:05;100570.84;;;12.96;57.80
58769;BME280;44536;47.474;19.056;2023-05-11T00:46:08;100568.31;;;12.94;58.49
58769;BME280;44536;47.474;19.056;2023-05-11T00:49:11;100565.97;;;13.01;57.25
58769;BME280;44536;47.474;19.056;2023-05-11T00:52:13;100567.09;;;12.98;58.83
58769;BME280;44536;47.474;19.056;2023-05-11T00:55:18;100563.13;;;12.92;59.56
58769;BME280;44536;47.474;19.056;2023-05-11T00:58:21;100557.53;;;12.96;59.71
58769;BME280;44536;47.474;19.056;2023-05-11T01:01:23;100561.88;;;12.97;59.24
58769;BME280;44536;47.474;19.056;2023-05-11T01:04:25;100560.19;;;12.96;59.48
58769;BME280;44536;47.474;19.056;2023-05-11T01:07:36;100549.44;;;12.97;59.24
58769;BME280;44536;47.474;19.056;2023-05-11T01:10:48;100555.06;;;13.04;59.93
58769;BME280;44536;47.474;19.056;2023-05-11T01:14:11;100551.41;;;13.05;59.41
58769;BME280;44536;47.474;19.056;2023-05-11T01:17:35;100561.56;;;13.11;59.63
58769;BME280;44536;47.474;19.056;2023-05-11T01:20:42;100556.81;;;13.14;59.40
58769;BME280;44536;47.474;19.056;2023-05-11T01:27:44;100554.69;;;13.40;57.15
58769;BME280;44536;47.474;19.056;2023-05-11T01:31:05;100558.50;;;13.27;58.39
58769;BME280;44536;47.474;19.056;2023-05-11T01:34:21;100554.59;;;13.31;58.46
58769;BME280;44536;47.474;19.056;2023-05-11T01:37:25;100559.81;;;13.32;57.83
58769;BME280;44536;47.474;19.056;2023-05-11T01:40:30;100560.31;;;13.26;59.38
58769;BME280;44536;47.474;19.056;2023-05-11T01:43:35;100553.94;;;13.17;59.28
58769;BME280;44536;47.474;19.056;2023-05-11T01:46:40;100552.06;;;13.29;58.63
58769;BME280;44536;47.474;19.056;2023-05-11T01:49:44;100553.31;;;13.25;58.37
58769;BME280;44536;47.474;19.056;2023-05-11T01:52:47;100551.88;;;13.21;58.85
58769;BME280;44536;47.474;19.056;2023-05-11T01:55:53;100558.16;;;13.20;58.72
58769;BME280;44536;47.474;19.056;2023-05-11T01:58:57;100555.13;;;13.24;58.42
58769;BME280;44536;47.474;19.056;2023-05-11T02:02:01;100553.50;;;13.33;58.63
58769;BME280;44536;47.474;19.056;2023-05-11T02:05:05;100550.97;;;13.32;58.05
58769;BME280;44536;47.474;19.056;2023-05-11T02:08:08;100549.53;;;13.28;58.18
58769;BME280;44536;47.474;19.056;2023-05-11T02:11:12;100544.59;;;13.23;58.32
58769;BME280;44536;47.474;19.056;2023-05-11T02:14:17;100545.56;;;13.22;59.34
58769;BME280;44536;47.474;19.056;2023-05-11T02:17:23;100552.00;;;13.19;58.85
58769;BME280;44536;47.474;19.056;2023-05-11T02:20:25;100541.94;;;13.12;59.21
58769;BME280;44536;47.474;19.056;2023-05-11T02:23:30;100537.84;;;13.19;59.12
58769;BME280;44536;47.474;19.056;2023-05-11T02:26:34;100537.12;;;13.17;60.05
58769;BME280;44536;47.474;19.056;2023-05-11T02:29:36;100536.38;;;13.15;59.74
58769;BME280;44536;47.474;19.056;2023-05-11T02:32:46;100532.78;;;13.05;59.65
58769;BME280;44536;47.474;19.056;2023-05-11T02:35:54;100532.78;;;13.05;59.82
58769;BME280;44536;47.474;19.056;2023-05-11T02:39:03;100531.09;;;13.04;60.13
58769;BME280;44536;47.474;19.056;2023-05-11T02:42:13;100532.19;;;13.01;60.27
58769;BME280;44536;47.474;19.056;2023-05-11T02:45:18;100528.37;;;12.94;60.90
58769;BME280;44536;47.474;19.056;2023-05-11T02:48:27;100532.88;;;12.93;60.50
58769;BME280;44536;47.474;19.056;2023-05-11T02:51:35;100524.44;;;12.77;61.35
58769;BME280;44536;47.474;19.056;2023-05-11T02:54:40;100526.31;;;12.66;62.18
58769;BME280;44536;47.474;19.056;2023-05-11T02:57:44;100521.59;;;12.58;61.76
58769;BME280;44536;47.474;19.056;2023-05-11T03:00:48;100523.53;;;12.56;61.98
58769;BME280;44536;47.474;19.056;2023-05-11T03:03:51;100511.22;;;12.55;61.81
58769;BME280;44536;47.474;19.056;2023-05-11T03:06:55;100514.13;;;12.52;61.70
58769;BME280;44536;47.474;19.056;2023-05-11T03:09:57;100508.31;;;12.58;61.34
58769;BME280;44536;47.474;19.056;2023-05-11T03:13:00;100522.78;;;12.65;60.41
58769;BME280;44536;47.474;19.056;2023-05-11T03:16:04;100515.06;;;12.62;60.01
58769;BME280;44536;47.474;19.056;2023-05-11T03:19:08;100521.72;;;12.56;60.47
58769;BME280;44536;47.474;19.056;2023-05-11T03:22:11;100519.19;;;12.55;60.27
58769;BME280;44536;47.474;19.056;2023-05-11T03:25:15;100526.31;;;12.54;60.39
58769;BME280;44536;47.474;19.056;2023-05-11T03:28:21;100529.13;;;12.53;60.80
58769;BME280;44536;47.474;19.056;2023-05-11T03:31:26;100527.94;;;12.46;60.54
58769;BME280;44536;47.474;19.056;2023-05-11T03:34:31;100535.81;;;12.47;59.98
58769;BME280;44536;47.474;19.056;2023-05-11T03:37:35;100540.94;;;12.60;59.64
58769;BME280;44536;47.474;19.056;2023-05-11T03:40:40;100534.31;;;12.54;59.86
58769;BME280;44536;47.474;19.056;2023-05-11T03:43:44;100546.22;;;12.39;60.80
58769;BME280;44536;47.474;19.056;2023-05-11T03:46:51;100544.03;;;12.33;60.86
58769;BME280;44536;47.474;19.056;2023-05-11T03:49:55;100551.41;;;12.30;61.27
58769;BME280;44536;47.474;19.056;2023-05-11T03:52:58;100545.37;;;12.27;61.72
58769;BME280;44536;47.474;19.056;2023-05-11T03:56:02;100550.69;;;12.27;61.40
58769;BME280;44536;47.474;19.056;2023-05-11T03:59:04;100541.16;;;12.25;61.94
58769;BME280;44536;47.474;19.056;2023-05-11T04:02:07;100550.94;;;12.24;61.96
58769;BME280;44536;47.474;19.056;2023-05-11T04:05:11;100546.00;;;12.20;62.41
58769;BME280;44536;47.474;19.056;2023-05-11T04:08:14;100550.94;;;12.24;61.95
58769;BME280;44536;47.474;19.056;2023-05-11T04:11:16;100545.75;;;12.34;61.14
58769;BME280;44536;47.474;19.056;2023-05-11T04:14:19;100544.75;;;12.46;60.67
58769;BME280;44536;47.474;19.056;2023-05-11T04:17:24;100555.41;;;12.35;61.45
58769;BME280;44536;47.474;19.056;2023-05-11T04:20:26;100559.63;;;12.26;62.19
58769;BME280;44536;47.474;19.056;2023-05-11T04:23:29;100559.53;;;12.28;61.96
58769;BME280;44536;47.474;19.056;2023-05-11T04:26:32;100557.78;;;12.49;62.10
58769;BME280;44536;47.474;19.056;2023-05-11T04:29:35;100561.84;;;12.65;60.98
58769;BME280;44536;47.474;19.056;2023-05-11T04:32:37;100571.28;;;12.69;61.13
58769;BME280;44536;47.474;19.056;2023-05-11T04:35:40;100569.19;;;12.83;61.41
58769;BME280;44536;47.474;19.056;2023-05-11T04:38:43;100572.31;;;12.88;60.30
58769;BME280;44536;47.474;19.056;2023-05-11T04:41:46;100576.22;;;13.05;58.04
58769;BME280;44536;47.474;19.056;2023-05-11T04:44:52;100583.69;;;12.90;57.61
58769;BME280;44536;47.474;19.056;2023-05-11T04:47:54;100576.56;;;12.80;56.24
58769;BME280;44536;47.474;19.056;2023-05-11T04:50:57;100582.75;;;12.80;55.86
58769;BME280;44536;47.474;19.056;2023-05-11T04:54:01;100579.47;;;12.88;54.79
58769;BME280;44536;47.474;19.056;2023-05-11T04:57:03;100580.78;;;12.93;54.91
58769;BME280;44536;47.474;19.056;2023-05-11T05:00:06;100589.34;;;12.97;54.11
58769;BME280;44536;47.474;19.056;2023-05-11T05:03:11;100582.25;;;12.86;54.13
58769;BME280;44536;47.474;19.056;2023-05-11T05:06:14;100584.19;;;12.84;53.49
58769;BME280;44536;47.474;19.056;2023-05-11T05:09:16;100585.28;;;12.82;54.57
58769;BME280;44536;47.474;19.056;2023-05-11T05:12:19;100580.94;;;12.81;54.21
58769;BME280;44536;47.474;19.056;2023-05-11T05:15:21;100585.00;;;12.96;54.35
58769;BME280;44536;47.474;19.056;2023-05-11T05:18:24;100586.63;;;13.19;52.95
58769;BME280;44536;47.474;19.056;2023-05-11T05:21:26;100590.97;;;13.09;52.90
58769;BME280;44536;47.474;19.056;2023-05-11T05:24:30;100585.78;;;13.08;53.40
58769;BME280;44536;47.474;19.056;2023-05-11T05:27:32;100591.69;;;13.22;53.20
58769;BME280;44536;47.474;19.056;2023-05-11T05:30:38;100592.87;;;13.50;52.23
58769;BME280;44536;47.474;19.056;2023-05-11T05:33:41;100588.50;;;13.70;51.28
58769;BME280;44536;47.474;19.056;2023-05-11T05:36:52;100596.31;;;13.83;51.35
58769;BME280;44536;47.474;19.056;2023-05-11T05:39:55;100588.94;;;13.96;51.13
58769;BME280;44536;47.474;19.056;2023-05-11T05:42:58;100594.53;;;15.79;46.61
58769;BME280;44536;47.474;19.056;2023-05-11T05:46:00;100598.97;;;17.43;42.55
58769;BME280;44536;47.474;19.056;2023-05-11T05:49:04;100597.84;;;17.28;42.41
58769;BME280;44536;47.474;19.056;2023-05-11T05:52:08;100600.19;;;17.49;42.42
58769;BME280;44536;47.474;19.056;2023-05-11T05:55:12;100601.97;;;18.44;40.09
58769;BME280;44536;47.474;19.056;2023-05-11T05:58:14;100601.41;;;18.74;39.29
58769;BME280;44536;47.474;19.056;2023-05-11T06:01:17;100608.62;;;19.57;37.65
58769;BME280;44536;47.474;19.056;2023-05-11T06:04:20;100610.03;;;20.94;35.82
58769;BME280;44536;47.474;19.056;2023-05-11T06:07:22;100603.81;;;21.62;34.03
58769;BME280;44536;47.474;19.056;2023-05-11T06:10:25;100603.19;;;22.12;33.69
58769;BME280;44536;47.474;19.056;2023-05-11T06:13:27;100604.88;;;21.76;34.45
58769;BME280;44536;47.474;19.056;2023-05-11T06:16:30;100608.38;;;21.24;34.51
58769;BME280;44536;47.474;19.056;2023-05-11T06:19:33;100603.34;;;21.59;34.76
58769;BME280;44536;47.474;19.056;2023-05-11T06:22:36;100603.56;;;21.87;34.89
58769;BME280;44536;47.474;19.056;2023-05-11T06:25:39;100602.25;;;22.05;34.02
58769;BME280;44536;47.474;19.056;2023-05-11T06:28:41;100603.37;;;22.11;34.04
58769;BME280;44536;47.474;19.056;2023-05-11T06:31:44;100602.87;;;22.37;33.36
58769;BME280;44536;47.474;19.056;2023-05-11T06:34:47;100597.00;;;22.48;33.66
58769;BME280;44536;47.474;19.056;2023-05-11T06:37:49;100595.09;;;23.35;31.93
58769;BME280;44536;47.474;19.056;2023-05-11T06:40:52;100600.16;;;23.45;32.31
58769;BME280;44536;47.474;19.056;2023-05-11T06:43:54;100598.84;;;22.77;33.27
58769;BME280;44536;47.474;19.056;2023-05-11T06:46:59;100594.00;;;23.08;32.83
58769;BME280;44536;47.474;19.056;2023-05-11T06:50:02;100587.78;;;22.57;33.26
58769;BME280;44536;47.474;19.056;2023-05-11T06:53:05;100592.28;;;22.35;34.53
58769;BME280;44536;47.474;19.056;2023-05-11T06:56:09;100592.94;;;22.23;34.51
58769;BME280;44536;47.474;19.056;2023-05-11T06:59:12;100591.28;;;21.69;34.82
58769;BME280;44536;47.474;19.056;2023-05-11T07:02:14;100590.84;;;20.89;36.03
58769;BME280;44536;47.474;19.056;2023-05-11T07:05:17;100575.63;;;22.68;31.90
58769;BME280;44536;47.474;19.056;2023-05-11T07:08:19;100581.94;;;23.75;30.93
58769;BME280;44536;47.474;19.056;2023-05-11T07:11:22;100580.28;;;23.31;30.56
58769;BME280;44536;47.474;19.056;2023-05-11T07:14:24;100585.16;;;22.78;31.47
58769;BME280;44536;47.474;19.056;2023-05-11T07:17:27;100581.22;;;21.63;32.98
58769;BME280;44536;47.474;19.056;2023-05-11T07:20:29;100573.91;;;21.03;34.38
58769;BME280;44536;47.474;19.056;2023-05-11T07:23:32;100581.66;;;20.36;35.32
58769;BME280;44536;47.474;19.056;2023-05-11T07:26:34;100578.09;;;20.52;36.23
58769;BME280;44536;47.474;19.056;2023-05-11T07:29:37;100575.56;;;20.11;35.30
58769;BME280;44536;47.474;19.056;2023-05-11T07:32:39;100581.56;;;19.66;35.91
58769;BME280;44536;47.474;19.056;2023-05-11T07:35:42;100576.50;;;19.55;36.48
58769;BME280;44536;47.474;19.056;2023-05-11T07:38:44;100577.53;;;19.54;36.83
58769;BME280;44536;47.474;19.056;2023-05-11T07:41:47;100581.69;;;19.16;38.17
58769;BME280;44536;47.474;19.056;2023-05-11T07:44:50;100571.28;;;18.55;37.61
58769;BME280;44536;47.474;19.056;2023-05-11T07:47:53;100567.28;;;18.59;38.36
58769;BME280;44536;47.474;19.056;2023-05-11T07:50:56;100568.91;;;19.02;38.76
58769;BME280;44536;47.474;19.056;2023-05-11T07:53:59;100571.59;;;19.42;38.46
58769;BME280;44536;47.474;19.056;2023-05-11T07:57:01;100570.47;;;18.54;38.49
58769;BME280;44536;47.474;19.056;2023-05-11T08:00:06;100569.19;;;18.32;39.08
58769;BME280;44536;47.474;19.056;2023-05-11T08:03:12;100577.44;;;18.39;40.37
58769;BME280;44536;47.474;19.056;2023-05-11T08:06:16;100576.47;;;18.48;39.99
58769;BME280;44536;47.474;19.056;2023-05-11T08:09:19;100575.50;;;18.15;40.21
58769;BME280;44536;47.474;19.056;2023-05-11T08:12:22;100574.22;;;17.93;40.80
58769;BME280;44536;47.474;19.056;2023-05-11T08:15:24;100568.38;;;18.40;40.98
58769;BME280;44536;47.474;19.056;2023-05-11T08:18:27;100567.97;;;18.18;40.26
58769;BME280;44536;47.474;19.056;2023-05-11T08:21:29;100567.16;;;17.92;40.81
58769;BME280;44536;47.474;19.056;2023-05-11T08:24:32;100562.84;;;17.99;41.49
58769;BME280;44536;47.474;19.056;2023-05-11T08:27:34;100568.25;;;17.81;41.07
58769;BME280;44536;47.474;19.056;2023-05-11T08:30:37;100566.25;;;17.83;41.04
58769;BME280;44536;47.474;19.056;2023-05-11T08:33:43;100557.56;;;17.64;40.24
58769;BME280;44536;47.474;19.056;2023-05-11T08:36:46;100546.59;;;18.01;40.49
58769;BME280;44536;47.474;19.056;2023-05-11T08:39:48;100546.16;;;18.13;41.07
58769;BME280;44536;47.474;19.056;2023-05-11T08:42:54;100548.81;;;18.56;40.01
58769;BME280;44536;47.474;19.056;2023-05-11T08:46:01;100550.62;;;18.47;39.89
58769;BME280;44536;47.474;19.056;2023-05-11T08:49:06;100542.75;;;18.53;39.15
58769;BME280;44536;47.474;19.056;2023-05-11T08:52:08;100534.38;;;18.57;39.38
58769;BME280;44536;47.474;19.056;2023-05-11T08:55:12;100542.16;;;18.68;39.29
58769;BME280;44536;47.474;19.056;2023-05-11T08:58:16;100531.84;;;18.55;39.27
58769;BME280;44536;47.474;19.056;2023-05-11T09:01:22;100535.97;;;18.83;39.67
58769;BME280;44536;47.474;19.056;2023-05-11T09:04:25;100521.87;;;18.90;39.18
58769;BME280;44536;47.474;19.056;2023-05-11T09:07:29;100531.09;;;18.71;39.46
58769;BME280;44536;47.474;19.056;2023-05-11T09:10:32;100515.13;;;18.69;38.61
58769;BME280;44536;47.474;19.056;2023-05-11T09:13:34;100512.44;;;18.85;39.17
58769;BME280;44536;47.474;19.056;2023-05-11T09:16:37;100521.03;;;19.62;37.90
58769;BME280;44536;47.474;19.056;2023-05-11T09:20:04;100516.91;;;20.69;36.29
58769;BME280;44536;47.474;19.056;2023-05-11T09:23:07;100513.12;;;21.24;34.85
58769;BME280;44536;47.474;19.056;2023-05-11T09:26:19;100508.56;;;22.06;33.65
58769;BME280;44536;47.474;19.056;2023-05-11T09:29:21;100508.78;;;22.98;31.25
58769;BME280;44536;47.474;19.056;2023-05-11T09:32:24;100501.09;;;22.23;32.11
58769;BME280;44536;47.474;19.056;2023-05-11T09:35:29;100501.66;;;21.89;32.65
58769;BME280;44536;47.474;19.056;2023-05-11T09:38:32;100497.81;;;20.78;33.89
58769;BME280;44536;47.474;19.056;2023-05-11T09:41:35;100495.41;;;21.59;32.63
58769;BME280;44536;47.474;19.056;2023-05-11T09:44:38;100491.03;;;21.58;32.37
58769;BME280;44536;47.474;19.056;2023-05-11T09:47:40;100499.94;;;21.06;33.22
58769;BME280;44536;47.474;19.056;2023-05-11T09:50:43;100496.12;;;20.77;32.66
58769;BME280;44536;47.474;19.056;2023-05-11T09:53:45;100488.75;;;21.32;31.87
58769;BME280;44536;47.474;19.056;2023-05-11T09:56:53;100493.66;;;21.80;30.74
58769;BME280;44536;47.474;19.056;2023-05-11T10:00:03;100500.84;;;22.18;30.59
58769;BME280;44536;47.474;19.056;2023-05-11T10:03:18;100480.72;;;22.05;30.76
58769;BME280;44536;47.474;19.056;2023-05-11T10:06:21;100485.41;;;22.69;28.98
58769;BME280;44536;47.474;19.056;2023-05-11T10:09:23;100473.72;;;23.32;28.10
58769;BME280;44536;47.474;19.056;2023-05-11T10:12:27;100485.00;;;22.87;27.67
58769;BME280;44536;47.474;19.056;2023-05-11T10:15:31;100472.31;;;22.51;28.25
58769;BME280;44536;47.474;19.056;2023-05-11T10:18:36;100476.47;;;22.68;29.17
58769;BME280;44536;47.474;19.056;2023-05-11T10:21:38;100476.16;;;22.06;30.05
58769;BME280;44536;47.474;19.056;2023-05-11T10:24:42;100480.84;;;22.69;28.68
58769;BME280;44536;47.474;19.056;2023-05-11T10:27:45;100456.97;;;22.73;28.75
58769;BME280;44536;47.474;19.056;2023-05-11T10:30:48;100461.09;;;22.90;27.64
58769;BME280;44536;47.474;19.056;2023-05-11T10:33:51;100466.41;;;23.54;27.77
58769;BME280;44536;47.474;19.056;2023-05-11T10:36:54;100463.16;;;23.37;27.98
58769;BME280;44536;47.474;19.056;2023-05-11T10:39:58;100458.34;;;24.08;25.88
58769;BME280;44536;47.474;19.056;2023-05-11T10:43:36;100457.94;;;24.72;26.47
58769;BME280;44536;47.474;19.056;2023-05-11T10:55:06;100446.53;;;22.49;28.45
58769;BME280;44536;47.474;19.056;2023-05-11T10:58:20;100440.16;;;22.35;28.52
58769;BME280;44536;47.474;19.056;2023-05-11T11:04:47;100433.16;;;23.32;27.63
58769;BME280;44536;47.474;19.056;2023-05-11T11:07:56;100437.72;;;24.75;27.04
58769;BME280;44536;47.474;19.056;2023-05-11T11:11:27;100431.16;;;23.82;27.24
58769;BME280;44536;47.474;19.056;2023-05-11T11:14:56;100430.31;;;23.75;26.27
58769;BME280;44536;47.474;19.056;2023-05-11T11:18:29;100425.62;;;24.91;25.03
58769;BME280;44536;47.474;19.056;2023-05-11T11:21:40;100435.44;;;25.25;24.14
58769;BME280;44536;47.474;19.056;2023-05-11T11:29:07;100419.69;;;22.47;28.39
58769;BME280;44536;47.474;19.056;2023-05-11T11:39:03;100422.16;;;22.06;29.03
58769;BME280;44536;47.474;19.056;2023-05-11T11:42:43;100413.31;;;22.76;28.26
58769;BME280;44536;47.474;19.056;2023-05-11T11:45:50;100417.75;;;22.41;27.92
58769;BME280;44536;47.474;19.056;2023-05-11T11:49:12;100409.16;;;21.80;29.93
58769;BME280;44536;47.474;19.056;2023-05-11T11:55:46;100406.56;;;21.72;29.68
58769;BME280;44536;47.474;19.056;2023-05-11T12:03:21;100416.34;;;22.88;27.31
58769;BME280;44536;47.474;19.056;2023-05-11T12:06:26;100412.63;;;24.47;25.56
58769;BME280;44536;47.474;19.056;2023-05-11T12:09:37;100411.38;;;23.47;27.38
58769;BME280;44536;47.474;19.056;2023-05-11T12:12:44;100409.34;;;23.21;27.90
58769;BME280;44536;47.474;19.056;2023-05-11T12:15:46;100406.59;;;21.93;30.21
58769;BME280;44536;47.474;19.056;2023-05-11T12:18:55;100405.28;;;22.61;28.35
58769;BME280;44536;47.474;19.056;2023-05-11T12:22:02;100390.78;;;23.53;27.26
58769;BME280;44536;47.474;19.056;2023-05-11T12:25:05;100383.97;;;24.11;26.73
58769;BME280;44536;47.474;19.056;2023-05-11T12:28:11;100393.94;;;23.91;27.52
58769;BME280;44536;47.474;19.056;2023-05-11T12:31:14;100393.37;;;21.98;29.21
58769;BME280;44536;47.474;19.056;2023-05-11T12:34:18;100389.00;;;22.12;29.08
58769;BME280;44536;47.474;19.056;2023-05-11T12:37:21;100384.16;;;22.93;27.86
58769;BME280;44536;47.474;19.056;2023-05-11T12:40:24;100375.66;;;22.96;27.51
58769;BME280;44536;47.474;19.056;2023-05-11T12:43:26;100371.78;;;23.74;26.79
58769;BME280;44536;47.474;19.056;2023-05-11T12:46:29;100380.38;;;23.15;28.26
58769;BME280;44536;47.474;19.056;2023-05-11T12:49:31;100372.69;;;23.19;27.39
58769;BME280;44536;47.474;19.056;2023-05-11T12:52:34;100367.19;;;23.40;26.61
58769;BME280;44536;47.474;19.056;2023-05-11T12:55:37;100371.56;;;23.41;26.67
58769;BME280;44536;47.474;19.056;2023-05-11T12:58:39;100366.78;;;23.36;27.24
58769;BME280;44536;47.474;19.056;2023-05-11T13:01:42;100365.06;;;23.29;26.84
58769;BME280;44536;47.474;19.056;2023-05-11T13:04:46;100352.37;;;22.73;27.66
58769;BME280;44536;47.474;19.056;2023-05-11T13:07:58;100355.03;;;22.45;27.79
58769;BME280;44536;47.474;19.056;2023-05-11T13:11:23;100347.06;;;22.59;27.13
58769;BME280;44536;47.474;19.056;2023-05-11T13:14:30;100345.31;;;22.08;28.41
58769;BME280;44536;47.474;19.056;2023-05-11T13:17:34;100331.00;;;21.57;29.34
58769;BME280;44536;47.474;19.056;2023-05-11T13:20:38;100338.63;;;21.54;28.47
58769;BME280;44536;47.474;19.056;2023-05-11T13:23:40;100328.09;;;21.95;28.26
58769;BME280;44536;47.474;19.056;2023-05-11T13:26:43;100326.78;;;22.48;27.00
58769;BME280;44536;47.474;19.056;2023-05-11T13:29:45;100317.47;;;23.06;26.47
58769;BME280;44536;47.474;19.056;2023-05-11T13:32:48;100329.03;;;22.94;27.26
58769;BME280;44536;47.474;19.056;2023-05-11T13:35:50;100338.31;;;21.78;29.27
58769;BME280;44536;47.474;19.056;2023-05-11T13:38:53;100313.53;;;21.38;30.41
58769;BME280;44536;47.474;19.056;2023-05-11T13:41:55;100319.31;;;21.21;31.23
58769;BME280;44536;47.474;19.056;2023-05-11T13:44:57;100329.53;;;21.10;31.02
58769;BME280;44536;47.474;19.056;2023-05-11T13:48:00;100313.81;;;21.43;30.52
58769;BME280;44536;47.474;19.056;2023-05-11T13:51:03;100319.59;;;21.40;30.81
58769;BME280;44536;47.474;19.056;2023-05-11T13:54:06;100312.72;;;21.23;29.97
58769;BME280;44536;47.474;19.056;2023-05-11T13:57:09;100307.75;;;20.68;30.92
58769;BME280;44536;47.474;19.056;2023-05-11T14:00:11;100307.16;;;20.58;31.19
58769;BME280;44536;47.474;19.056;2023-05-11T14:03:14;100299.88;;;20.43;30.85
58769;BME280;44536;47.474;19.056;2023-05-11T14:06:20;100301.69;;;20.80;30.89
58769;BME280;44536;47.474;19.056;2023-05-11T14:09:23;100294.19;;;20.76;30.37
58769;BME280;44536;47.474;19.056;2023-05-11T14:12:28;100306.47;;;20.78;30.78
58769;BME280;44536;47.474;19.056;2023-05-11T14:15:31;100300.06;;;20.79;30.09
58769;BME280;44536;47.474;19.056;2023-05-11T14:18:33;100298.06;;;20.59;29.78
58769;BME280;44536;47.474;19.056;2023-05-11T14:21:36;100294.53;;;20.58;30.45
58769;BME280;44536;47.474;19.056;2023-05-11T14:24:38;100297.59;;;20.55;29.32
58769;BME280;44536;47.474;19.056;2023-05-11T14:27:41;100299.06;;;20.20;30.23
58769;BME280;44536;47.474;19.056;2023-05-11T14:30:44;100300.00;;;20.27;30.33
58769;BME280;44536;47.474;19.056;2023-05-11T14:33:47;100283.47;;;20.30;30.43
58769;BME280;44536;47.474;19.056;2023-05-11T14:36:49;100286.16;;;20.30;30.42
58769;BME280;44536;47.474;19.056;2023-05-11T14:39:52;100289.31;;;20.34;30.27
58769;BME280;44536;47.474;19.056;2023-05-11T14:42:54;100281.06;;;20.35;30.90
58769;BME280;44536;47.474;19.056;2023-05-11T14:45:56;100289.00;;;20.14;31.27
58769;BME280;44536;47.474;19.056;2023-05-11T14:48:59;100289.06;;;20.06;31.38
58769;BME280;44536;47.474;19.056;2023-05-11T14:52:01;100287.31;;;19.90;32.08
58769;BME280;44536;47.474;19.056;2023-05-11T14:55:04;100285.63;;;19.89;31.71
58769;BME280;44536;47.474;19.056;2023-05-11T14:58:07;100286.00;;;19.86;31.58
58769;BME280;44536;47.474;19.056;2023-05-11T15:01:10;100287.53;;;19.80;32.49
58769;BME280;44536;47.474;19.056;2023-05-11T15:04:14;100286.44;;;19.75;32.23
58769;BME280;44536;47.474;19.056;2023-05-11T15:07:17;100291.84;;;19.67;32.22
58769;BME280;44536;47.474;19.056;2023-05-11T15:10:20;100285.47;;;19.68;32.25
58769;BME280;44536;47.474;19.056;2023-05-11T15:13:22;100281.44;;;19.64;32.50
58769;BME280;44536;47.474;19.056;2023-05-11T15:16:25;100279.91;;;19.69;32.55
58769;BME280;44536;47.474;19.056;2023-05-11T15:19:28;100288.00;;;19.61;32.62
58769;BME280;44536;47.474;19.056;2023-05-11T15:22:30;100283.16;;;19.57;32.57
58769;BME280;44536;47.474;19.056;2023-05-11T15:25:33;100281.84;;;19.53;33.16
58769;BME280;44536;47.474;19.056;2023-05-11T15:28:35;100286.88;;;19.56;32.78
58769;BME280;44536;47.474;19.056;2023-05-11T15:31:38;100294.28;;;19.45;33.31
58769;BME280;44536;47.474;19.056;2023-05-11T15:34:41;100286.28;;;19.29;33.08
58769;BME280;44536;47.474;19.056;2023-05-11T15:38:00;100285.94;;;19.32;33.40
58769;BME280;44536;47.474;19.056;2023-05-11T15:41:03;100294.97;;;19.39;33.57
58769;BME280;44536;47.474;19.056;2023-05-11T15:44:05;100297.34;;;19.34;34.02
58769;BME280;44536;47.474;19.056;2023-05-11T15:47:08;100290.78;;;19.37;34.16
58769;BME280;44536;47.474;19.056;2023-05-11T15:50:10;100300.25;;;19.25;34.59
58769;BME280;44536;47.474;19.056;2023-05-11T15:53:14;100305.19;;;19.13;34.75
58769;BME280;44536;47.474;19.056;2023-05-11T15:56:16;100310.03;;;19.17;34.84
58769;BME280;44536;47.474;19.056;2023-05-11T15:59:19;100300.78;;;19.20;35.02
58769;BME280;44536;47.474;19.056;2023-05-11T16:02:21;100301.00;;;19.10;35.23
58769;BME280;44536;47.474;19.056;2023-05-11T16:05:25;100307.19;;;19.11;35.54
58769;BME280;44536;47.474;19.056;2023-05-11T16:08:27;100302.69;;;19.03;36.07
58769;BME280;44536;47.474;19.056;2023-05-11T16:11:30;100314.28;;;19.04;36.53
58769;BME280;44536;47.474;19.056;2023-05-11T16:14:32;100307.38;;;19.09;35.84
58769;BME280;44536;47.474;19.056;2023-05-11T16:17:35;100313.12;;;18.90;36.40
58769;BME280;44536;47.474;19.056;2023-05-11T16:20:37;100314.31;;;18.88;36.38
58769;BME280;44536;47.474;19.056;2023-05-11T16:23:40;100308.09;;;18.79;36.81
58769;BME280;44536;47.474;19.056;2023-05-11T16:26:42;100314.47;;;18.86;36.78